Time;durP1;ratioP1;P1;durP2;ratioP2;P2;SDS_P1;SDS_P2;PMS_P1;PMS_P2;Temp;Humidity;BMP_temperature;BMP_pressure;BME280_temperature;BME280_humidity;BME280_pressure;Samples;Min_cycle;Max_cycle;Signal;HPM_P1;HPM_P2
2023/12/14 05:00:34;;;;;;;1.20;1.20;;;4.20;99.90;;;;;;5764200;23;20275;-75
2023/12/14 05:03:00;;;;;;;1.85;1.70;;;4.20;99.90;;;;;;4893020;29;20226;-75
2023/12/14 05:05:27;;;;;;;3.55;1.40;;;4.20;99.90;;;;;;4892544;29;20672;-75
2023/12/14 05:07:54;;;;;;;2.97;2.30;;;4.20;99.90;;;;;;4898309;29;20597;-75
2023/12/14 05:10:21;;;;;;;3.25;1.20;;;4.20;99.90;;;;;;4896072;29;20250;-75
2023/12/14 05:12:48;;;;;;;1.77;1.15;;;4.20;99.90;;;;;;4879664;29;20217;-74
2023/12/14 05:15:15;;;;;;;1.20;1.15;;;4.20;99.90;;;;;;4876419;29;20272;-74
2023/12/14 05:17:43;;;;;;;1.73;1.25;;;4.20;99.90;;;;;;4877692;29;20232;-74
2023/12/14 05:20:10;;;;;;;1.42;1.33;;;4.20;99.90;;;;;;4878355;29;20221;-75
2023/12/14 05:22:37;;;;;;;1.35;1.25;;;4.20;99.90;;;;;;4879459;29;20217;-74
2023/12/14 05:25:04;;;;;;;2.55;1.85;;;4.20;99.90;;;;;;4878637;29;20213;-75
2023/12/14 05:27:31;;;;;;;4.32;1.63;;;4.20;99.90;;;;;;4879477;29;20220;-75
2023/12/14 05:29:57;;;;;;;1.20;1.20;;;4.20;99.90;;;;;;4878586;29;20240;-75
2023/12/14 05:32:24;;;;;;;2.03;1.15;;;4.20;99.90;;;;;;4879197;29;20232;-75
2023/12/14 05:34:52;;;;;;;2.00;2.00;;;4.20;99.90;;;;;;4876923;29;20217;-75
2023/12/14 05:37:19;;;;;;;1.60;1.50;;;4.20;99.90;;;;;;4871751;29;20216;-75
2023/12/14 05:39:45;;;;;;;3.63;2.10;;;4.30;99.90;;;;;;4865597;29;20214;-75
2023/12/14 05:42:12;;;;;;;3.10;1.30;;;4.30;99.90;;;;;;4868673;29;20233;-74
2023/12/14 05:44:39;;;;;;;6.47;2.28;;;4.20;99.90;;;;;;4871994;29;20265;-74
2023/12/14 05:47:06;;;;;;;3.03;1.60;;;4.30;99.90;;;;;;4866624;29;20661;-75
2023/12/14 05:49:32;;;;;;;2.15;1.58;;;4.30;99.90;;;;;;4869681;29;20226;-76
2023/12/14 05:52:01;;;;;;;1.30;1.13;;;4.30;99.90;;;;;;4866624;29;20237;-75
2023/12/14 05:54:28;;;;;;;2.90;2.42;;;4.30;99.90;;;;;;4865371;29;20231;-76
2023/12/14 05:56:54;;;;;;;2.80;2.20;;;4.30;99.90;;;;;;4865671;29;20213;-76
2023/12/14 05:59:21;;;;;;;2.40;2.10;;;4.30;99.90;;;;;;4872580;29;20650;-76
2023/12/14 06:01:48;;;;;;;2.45;1.77;;;4.40;99.90;;;;;;4869256;29;20239;-76
2023/12/14 06:04:14;;;;;;;2.90;1.77;;;4.40;99.90;;;;;;4876909;29;20215;-76
2023/12/14 06:06:41;;;;;;;5.45;2.35;;;4.40;99.90;;;;;;4865787;29;20221;-76
2023/12/14 06:09:09;;;;;;;3.83;3.55;;;4.40;99.90;;;;;;4866430;29;20238;-76
2023/12/14 06:11:36;;;;;;;4.15;3.35;;;4.40;99.90;;;;;;4867522;29;20234;-76
2023/12/14 06:14:03;;;;;;;2.60;2.00;;;4.40;99.90;;;;;;4867009;29;20214;-76
2023/12/14 06:16:29;;;;;;;3.72;2.35;;;4.40;99.90;;;;;;4867739;29;20217;-76
2023/12/14 06:18:56;;;;;;;3.60;2.38;;;4.40;99.90;;;;;;4873160;29;20203;-75
2023/12/14 06:21:25;;;;;;;2.25;2.10;;;4.40;99.90;;;;;;4875790;29;20230;-75
2023/12/14 06:23:52;;;;;;;3.45;2.50;;;4.40;99.90;;;;;;4876404;29;20686;-76
2023/12/14 06:26:20;;;;;;;2.25;2.05;;;4.40;99.90;;;;;;4876904;29;20229;-75
2023/12/14 06:28:47;;;;;;;6.00;2.88;;;4.40;99.90;;;;;;4875967;29;20233;-75
2023/12/14 06:31:15;;;;;;;4.00;2.50;;;4.40;99.90;;;;;;4878017;29;20272;-75
2023/12/14 06:33:41;;;;;;;2.60;1.88;;;4.40;99.90;;;;;;4875910;29;20693;-75
2023/12/14 06:36:09;;;;;;;3.00;2.78;;;4.40;99.90;;;;;;4875875;29;20218;-74
2023/12/14 06:38:39;;;;;;;6.40;3.67;;;4.40;99.90;;;;;;4877869;29;20563;-74
2023/12/14 06:41:06;;;;;;;6.10;4.07;;;4.30;99.90;;;;;;4876483;29;20229;-74
2023/12/14 06:43:34;;;;;;;4.43;3.40;;;4.40;99.90;;;;;;4876900;29;20677;-75
2023/12/14 06:46:01;;;;;;;4.50;3.30;;;4.40;99.90;;;;;;4882779;29;20217;-74
2023/12/14 06:48:27;;;;;;;4.20;2.95;;;4.30;99.90;;;;;;4877513;29;20215;-75
2023/12/14 06:50:54;;;;;;;6.22;2.50;;;4.30;99.90;;;;;;4876492;29;20578;-75
2023/12/14 06:53:21;;;;;;;5.40;4.32;;;4.40;99.90;;;;;;4877055;29;20221;-75
2023/12/14 06:55:48;;;;;;;3.97;3.17;;;4.30;99.90;;;;;;4885714;29;20236;-75
2023/12/14 06:58:15;;;;;;;6.05;3.10;;;4.40;99.90;;;;;;4878109;29;20217;-75
2023/12/14 07:00:43;;;;;;;5.28;4.32;;;4.40;99.90;;;;;;4873573;29;20272;-75
2023/12/14 07:03:10;;;;;;;2.35;2.10;;;4.40;99.90;;;;;;4871378;29;20578;-75
2023/12/14 07:05:36;;;;;;;4.93;3.47;;;4.30;99.90;;;;;;4868218;29;20689;-75
2023/12/14 07:08:03;;;;;;;3.38;3.08;;;4.40;99.90;;;;;;4872387;29;20632;-77
2023/12/14 07:10:30;;;;;;;2.40;2.20;;;4.40;99.90;;;;;;4870573;29;20836;-77
2023/12/14 07:12:57;;;;;;;5.53;2.42;;;4.40;99.90;;;;;;4876623;29;20210;-75
2023/12/14 07:15:24;;;;;;;3.15;2.58;;;4.40;99.90;;;;;;4870095;29;20206;-75
2023/12/14 07:17:52;;;;;;;2.88;2.60;;;4.40;99.90;;;;;;4866169;29;20214;-75
2023/12/14 07:20:19;;;;;;;3.22;2.85;;;4.40;99.90;;;;;;4870385;29;20227;-74
2023/12/14 07:22:45;;;;;;;6.72;3.60;;;4.40;99.90;;;;;;4873480;29;20224;-74
2023/12/14 07:25:12;;;;;;;5.05;2.63;;;4.40;99.90;;;;;;4879726;29;20216;-74
2023/12/14 07:27:39;;;;;;;4.90;3.80;;;4.40;99.90;;;;;;4868761;29;20210;-75
2023/12/14 07:30:09;;;;;;;2.72;2.53;;;4.50;99.90;;;;;;4868189;29;20255;-73
2023/12/14 07:32:35;;;;;;;4.70;3.35;;;4.50;99.90;;;;;;4870344;29;20302;-73
2023/12/14 07:35:04;;;;;;;7.03;4.28;;;4.40;99.90;;;;;;4868294;29;20215;-73
2023/12/14 07:37:31;;;;;;;7.80;2.63;;;4.40;99.90;;;;;;4868766;29;20629;-72
2023/12/14 07:39:57;;;;;;;29.48;5.63;;;4.40;99.90;;;;;;4863564;29;20282;-72
2023/12/14 07:42:25;;;;;;;22.10;4.72;;;4.40;99.90;;;;;;4868583;29;20224;-72
2023/12/14 07:44:52;;;;;;;3.72;3.22;;;4.40;99.90;;;;;;4866107;29;20219;-72
2023/12/14 07:47:19;;;;;;;3.17;2.20;;;4.40;99.90;;;;;;4864821;29;20306;-72
2023/12/14 07:49:46;;;;;;;5.00;3.33;;;4.40;99.90;;;;;;4864966;29;20233;-73
2023/12/14 07:52:14;;;;;;;3.33;3.03;;;4.40;99.90;;;;;;4870989;29;20622;-73
2023/12/14 07:54:41;;;;;;;6.68;3.15;;;4.40;99.90;;;;;;4870592;29;20215;-73
2023/12/14 07:57:08;;;;;;;6.28;3.55;;;4.40;99.90;;;;;;4873008;29;20218;-73
2023/12/14 07:59:35;;;;;;;7.78;3.65;;;4.50;99.90;;;;;;4871978;29;20564;-73
2023/12/14 08:02:01;;;;;;;8.55;4.68;;;4.40;99.90;;;;;;4875648;29;20241;-72
2023/12/14 08:04:28;;;;;;;15.25;4.53;;;4.40;99.90;;;;;;4873871;29;20209;-72
2023/12/14 08:06:56;;;;;;;11.27;3.60;;;4.50;99.90;;;;;;4873526;29;20215;-73
2023/12/14 08:09:24;;;;;;;31.80;6.40;;;4.50;99.90;;;;;;4874828;29;20276;-73
2023/12/14 08:11:52;;;;;;;13.45;5.18;;;4.50;99.90;;;;;;4875472;29;20229;-73
2023/12/14 08:14:19;;;;;;;6.97;3.67;;;4.50;99.90;;;;;;4879373;29;20558;-73
2023/12/14 08:16:45;;;;;;;5.10;3.25;;;4.50;99.90;;;;;;4873211;29;20222;-73
2023/12/14 08:19:12;;;;;;;4.47;3.35;;;4.50;99.90;;;;;;4874505;29;20217;-73
2023/12/14 08:21:39;;;;;;;5.53;4.00;;;4.50;99.90;;;;;;4873052;29;20237;-73
2023/12/14 08:24:06;;;;;;;3.60;3.28;;;4.50;99.90;;;;;;4880500;29;20735;-73
2023/12/14 08:26:34;;;;;;;12.23;5.32;;;4.50;99.90;;;;;;4879739;29;20217;-74
2023/12/14 08:29:00;;;;;;;10.23;4.38;;;4.50;99.90;;;;;;4875458;29;20237;-73
2023/12/14 08:31:27;;;;;;;5.93;3.42;;;4.50;99.90;;;;;;4879439;29;20272;-74
2023/12/14 08:33:54;;;;;;;5.50;3.83;;;4.50;99.90;;;;;;4872256;29;20217;-74
2023/12/14 08:36:20;;;;;;;14.35;5.15;;;4.60;99.90;;;;;;4872684;29;20213;-74
2023/12/14 08:38:47;;;;;;;4.15;3.50;;;4.60;99.90;;;;;;4874060;29;20214;-73
2023/12/14 08:41:14;;;;;;;4.88;4.05;;;4.60;99.90;;;;;;4871766;29;20222;-74
2023/12/14 08:43:42;;;;;;;4.35;3.95;;;4.60;99.90;;;;;;4870519;29;20254;-74
2023/12/14 08:46:09;;;;;;;6.50;3.08;;;4.60;99.90;;;;;;4869599;29;20654;-73
2023/12/14 08:48:37;;;;;;;8.63;3.60;;;4.60;99.90;;;;;;4873138;29;20301;-73
2023/12/14 08:51:04;;;;;;;4.68;4.00;;;4.60;99.90;;;;;;4869382;29;20257;-74
2023/12/14 08:53:31;;;;;;;6.88;3.97;;;4.60;99.90;;;;;;4874609;29;20293;-73
2023/12/14 08:55:58;;;;;;;5.72;4.75;;;4.60;99.90;;;;;;4870603;29;20214;-73
2023/12/14 08:58:25;;;;;;;3.72;3.42;;;4.60;99.90;;;;;;4871058;29;20304;-72
2023/12/14 09:00:53;;;;;;;11.63;4.95;;;4.60;99.90;;;;;;4870624;29;20233;-73
2023/12/14 09:03:20;;;;;;;11.80;4.00;;;4.60;99.90;;;;;;4877054;29;20390;-73
2023/12/14 09:05:47;;;;;;;11.45;4.15;;;4.60;99.90;;;;;;4875518;29;20211;-72
2023/12/14 09:08:14;;;;;;;7.28;3.92;;;4.60;99.90;;;;;;4878389;29;20218;-72
2023/12/14 09:10:40;;;;;;;4.93;3.42;;;4.60;99.90;;;;;;4878711;29;20242;-73
2023/12/14 09:13:07;;;;;;;9.85;6.35;;;4.60;99.90;;;;;;4872005;29;20210;-72
2023/12/14 09:15:34;;;;;;;3.60;3.30;;;4.60;99.90;;;;;;4875095;29;20210;-72
2023/12/14 09:18:02;;;;;;;5.45;2.90;;;4.60;99.90;;;;;;4872294;29;20233;-72
2023/12/14 09:20:29;;;;;;;3.40;3.10;;;4.70;99.90;;;;;;4868648;29;20205;-72
2023/12/14 09:22:56;;;;;;;8.57;3.88;;;4.70;99.90;;;;;;4870018;29;20324;-73
2023/12/14 09:25:24;;;;;;;4.82;3.75;;;4.70;99.90;;;;;;4872979;29;20215;-73
2023/12/14 09:27:50;;;;;;;4.75;3.45;;;4.70;99.90;;;;;;4870426;29;20214;-72
2023/12/14 09:30:18;;;;;;;2.65;2.45;;;4.70;99.90;;;;;;4870497;29;20233;-72
2023/12/14 09:32:44;;;;;;;7.15;3.92;;;4.70;99.90;;;;;;4882895;29;20317;-73
2023/12/14 09:35:12;;;;;;;7.40;4.00;;;4.70;99.90;;;;;;4878623;29;20211;-72
2023/12/14 09:37:41;;;;;;;2.63;2.42;;;4.70;99.90;;;;;;4878210;29;20211;-74
2023/12/14 09:40:09;;;;;;;9.07;3.00;;;4.80;99.90;;;;;;4878467;29;20210;-73
2023/12/14 09:42:39;;;;;;;6.30;3.72;;;4.80;99.90;;;;;;4877950;29;20230;-72
2023/12/14 09:45:08;;;;;;;6.70;3.40;;;4.80;99.90;;;;;;4880345;29;20215;-73
2023/12/14 09:47:35;;;;;;;3.35;3.08;;;4.80;99.90;;;;;;4878263;29;20250;-73
2023/12/14 09:50:03;;;;;;;2.63;2.42;;;4.80;99.90;;;;;;4879224;29;20265;-74
2023/12/14 09:52:31;;;;;;;5.47;3.42;;;4.80;99.90;;;;;;4878423;29;20642;-71
2023/12/14 09:54:58;;;;;;;3.00;2.35;;;4.80;99.90;;;;;;4878406;29;20297;-73
2023/12/14 09:57:25;;;;;;;3.45;3.00;;;4.80;99.90;;;;;;4878224;29;20234;-73
2023/12/14 09:59:53;;;;;;;5.65;3.85;;;4.80;99.90;;;;;;4876294;29;20297;-74
2023/12/14 10:02:19;;;;;;;11.27;5.07;;;4.80;99.90;;;;;;4877154;29;20247;-74
2023/12/14 10:04:47;;;;;;;7.03;3.75;;;4.80;99.90;;;;;;4867585;29;20219;-73
2023/12/14 10:07:14;;;;;;;3.13;2.45;;;4.80;99.90;;;;;;4873938;29;20221;-75
2023/12/14 10:09:42;;;;;;;9.10;4.95;;;4.80;99.90;;;;;;4877534;29;20210;-74
2023/12/14 10:12:10;;;;;;;13.13;4.60;;;4.80;99.90;;;;;;4878278;29;20231;-74
2023/12/14 10:14:38;;;;;;;3.78;3.15;;;4.80;99.90;;;;;;4873775;29;20210;-75
2023/12/14 10:17:17;;;;;;;6.85;3.15;;;4.80;99.90;;;;;;4873933;29;20302;-74
2023/12/14 10:19:44;;;;;;;7.03;4.13;;;4.80;99.90;;;;;;4878358;29;20222;-75
2023/12/14 10:22:11;;;;;;;5.20;4.80;;;4.90;99.90;;;;;;4873589;29;20238;-74
2023/12/14 10:24:38;;;;;;;4.22;3.85;;;4.90;99.90;;;;;;4877400;29;20210;-75
2023/12/14 10:27:08;;;;;;;5.60;3.17;;;4.90;99.90;;;;;;4877489;29;20214;-75
2023/12/14 10:29:35;;;;;;;5.45;2.97;;;4.90;99.90;;;;;;4878192;29;20648;-73
2023/12/14 10:32:03;;;;;;;10.70;4.07;;;4.90;99.90;;;;;;4877377;29;20249;-74
2023/12/14 10:34:30;;;;;;;5.95;3.70;;;4.90;99.90;;;;;;4874208;29;20211;-74
2023/12/14 10:36:56;;;;;;;7.82;3.28;;;4.90;99.90;;;;;;4876660;29;20215;-73
2023/12/14 10:39:23;;;;;;;4.40;3.35;;;4.90;99.90;;;;;;4878015;29;20306;-74
2023/12/14 10:41:54;;;;;;;3.65;3.08;;;4.90;99.90;;;;;;4874034;29;20586;-73
2023/12/14 10:44:26;;;;;;;4.45;3.97;;;5.00;99.90;;;;;;4877170;29;20222;-73
2023/12/14 10:46:56;;;;;;;3.67;3.35;;;5.00;99.90;;;;;;4869197;29;20675;-73
2023/12/14 10:49:24;;;;;;;10.05;4.07;;;5.00;99.90;;;;;;4870931;29;20275;-73
2023/12/14 10:51:52;;;;;;;7.43;3.95;;;5.00;99.90;;;;;;4878322;29;20250;-73
2023/12/14 10:54:20;;;;;;;9.05;4.10;;;5.00;99.90;;;;;;4876830;29;20675;-72
2023/12/14 10:56:46;;;;;;;6.25;3.85;;;5.10;99.90;;;;;;4875038;29;20234;-72
2023/12/14 10:59:16;;;;;;;7.03;2.85;;;5.10;99.90;;;;;;4876281;29;20254;-72
2023/12/14 11:01:44;;;;;;;4.90;3.63;;;5.10;99.90;;;;;;4877279;29;20604;-72
2023/12/14 11:04:14;;;;;;;6.57;3.67;;;5.10;99.90;;;;;;4878815;29;20218;-72
2023/12/14 11:06:46;;;;;;;5.05;4.65;;;5.10;99.90;;;;;;4881116;29;20222;-72
2023/12/14 11:09:15;;;;;;;6.47;3.05;;;5.10;99.90;;;;;;4877128;29;20207;-73
2023/12/14 11:11:44;;;;;;;8.30;3.55;;;5.10;99.90;;;;;;4874140;29;20242;-72
2023/12/14 11:14:13;;;;;;;3.58;3.28;;;5.10;99.90;;;;;;4877559;29;20671;-73
2023/12/14 11:16:44;;;;;;;4.00;3.70;;;5.10;99.90;;;;;;4878859;29;20667;-73
2023/12/14 11:19:31;;;;;;;4.75;3.70;;;5.10;99.90;;;;;;4882875;29;20245;-72
2023/12/14 11:22:14;;;;;;;10.35;3.92;;;5.10;99.90;;;;;;4876205;29;20242;-72
2023/12/14 11:24:43;;;;;;;5.25;3.10;;;5.10;99.90;;;;;;4878797;29;20219;-72
2023/12/14 11:27:10;;;;;;;6.40;3.22;;;5.10;99.90;;;;;;4877118;29;20275;-73
2023/12/14 11:29:38;;;;;;;6.57;4.40;;;5.10;99.90;;;;;;4875082;29;20211;-73
2023/12/14 11:32:06;;;;;;;8.73;3.85;;;5.10;99.90;;;;;;4875849;29;20234;-73
2023/12/14 11:34:34;;;;;;;3.35;3.05;;;5.20;99.90;;;;;;4872446;29;20587;-73
2023/12/14 11:37:01;;;;;;;9.13;4.13;;;5.10;99.90;;;;;;4875383;29;20218;-72
2023/12/14 11:39:31;;;;;;;5.95;3.40;;;5.10;99.90;;;;;;4871066;29;20218;-73
2023/12/14 11:42:03;;;;;;;4.05;3.58;;;5.10;99.90;;;;;;4877160;29;20235;-73
2023/12/14 11:44:30;;;;;;;4.57;3.28;;;5.10;99.90;;;;;;4872826;29;20693;-72
2023/12/14 11:46:57;;;;;;;4.65;3.15;;;5.10;99.90;;;;;;4875967;29;20624;-73
2023/12/14 11:49:25;;;;;;;3.65;3.33;;;5.10;99.90;;;;;;4873679;29;20222;-72
2023/12/14 11:51:55;;;;;;;2.78;2.38;;;5.10;99.90;;;;;;4874839;29;20272;-72
2023/12/14 11:54:22;;;;;;;4.22;3.03;;;5.10;99.90;;;;;;4876296;29;20210;-73
2023/12/14 11:56:49;;;;;;;4.20;3.83;;;5.10;99.90;;;;;;4876730;29;20249;-73
2023/12/14 11:59:17;;;;;;;3.13;2.92;;;5.10;99.90;;;;;;4877931;29;20210;-72
2023/12/14 12:01:55;;;;;;;3.95;3.50;;;5.10;99.90;;;;;;4877381;29;20341;-73
2023/12/14 12:04:21;;;;;;;3.45;3.15;;;5.10;99.90;;;;;;4877260;29;20234;-72
2023/12/14 12:06:48;;;;;;;3.90;3.55;;;5.20;99.90;;;;;;4877874;29;20215;-72
2023/12/14 12:09:39;;;;;;;6.93;3.45;;;5.10;99.90;;;;;;4877878;29;20308;-72
2023/12/14 12:12:10;;;;;;;3.00;2.70;;;5.10;99.90;;;;;;4877816;29;20239;-72
2023/12/14 12:14:38;;;;;;;4.00;3.17;;;5.20;99.90;;;;;;4877846;29;20243;-72
2023/12/14 12:17:06;;;;;;;2.80;2.60;;;5.20;99.90;;;;;;4877219;29;20235;-72
2023/12/14 12:19:34;;;;;;;5.53;3.10;;;5.20;99.90;;;;;;4876874;29;20275;-73
2023/12/14 12:22:00;;;;;;;6.75;4.20;;;5.20;99.90;;;;;;4876223;29;20234;-72
2023/12/14 12:24:27;;;;;;;4.85;2.60;;;5.20;99.90;;;;;;4877197;29;20207;-72
2023/12/14 12:26:55;;;;;;;3.97;3.10;;;5.30;99.90;;;;;;4877531;29;20222;-73
2023/12/14 12:29:22;;;;;;;3.83;3.53;;;5.20;99.90;;;;;;4876731;29;20687;-73
2023/12/14 12:31:48;;;;;;;2.42;1.60;;;5.30;99.90;;;;;;4874906;29;20249;-73
2023/12/14 12:34:16;;;;;;;3.95;2.22;;;5.20;99.90;;;;;;4877276;29;20328;-73
2023/12/14 12:36:42;;;;;;;6.22;4.38;;;5.20;99.90;;;;;;4878252;29;20214;-72
2023/12/14 12:39:09;;;;;;;2.97;2.65;;;5.20;99.90;;;;;;4877107;29;20233;-73
2023/12/14 12:41:37;;;;;;;2.15;2.05;;;5.20;99.90;;;;;;4877541;29;20284;-73
2023/12/14 12:44:07;;;;;;;2.60;2.45;;;5.20;99.90;;;;;;4876159;29;20223;-73
2023/12/14 12:46:33;;;;;;;1.80;1.70;;;5.20;99.90;;;;;;4875807;29;20211;-74
2023/12/14 12:49:01;;;;;;;2.15;2.00;;;5.10;99.90;;;;;;4875921;29;20214;-74
2023/12/14 12:51:28;;;;;;;3.08;2.35;;;5.10;99.90;;;;;;4870482;29;20237;-73
2023/12/14 12:53:55;;;;;;;2.50;2.33;;;5.10;99.90;;;;;;4875921;29;20223;-73
2023/12/14 12:56:21;;;;;;;2.42;2.22;;;5.10;99.90;;;;;;4876689;29;20230;-74
2023/12/14 12:58:49;;;;;;;3.88;3.50;;;5.10;99.90;;;;;;4874449;29;20219;-73
2023/12/14 13:01:17;;;;;;;2.55;2.35;;;5.10;99.90;;;;;;4876812;29;20231;-73
2023/12/14 13:03:44;;;;;;;4.43;2.80;;;5.10;99.90;;;;;;4876551;29;20223;-73
2023/12/14 13:06:11;;;;;;;2.63;2.00;;;5.10;99.90;;;;;;4876679;29;20579;-73
2023/12/14 13:08:37;;;;;;;3.03;2.47;;;5.00;99.90;;;;;;4877690;29;20233;-73
2023/12/14 13:11:05;;;;;;;4.60;2.60;;;5.00;99.90;;;;;;4881354;29;20234;-74
2023/12/14 13:13:32;;;;;;;3.20;2.75;;;5.00;99.90;;;;;;4880641;29;20286;-74
2023/12/14 13:15:58;;;;;;;5.50;2.83;;;5.00;99.90;;;;;;4889943;29;20677;-74
2023/12/14 13:18:26;;;;;;;4.15;3.85;;;4.90;99.90;;;;;;4882783;29;20286;-73
2023/12/14 13:20:53;;;;;;;3.65;2.50;;;4.90;99.90;;;;;;4879004;29;20231;-73
2023/12/14 13:23:19;;;;;;;4.53;3.00;;;4.90;99.90;;;;;;4879878;29;20217;-73
2023/12/14 13:25:46;;;;;;;2.85;2.75;;;4.90;99.90;;;;;;4879900;29;20223;-75
2023/12/14 13:28:13;;;;;;;6.75;3.42;;;4.90;99.90;;;;;;4876919;29;20215;-74
2023/12/14 13:30:40;;;;;;;3.63;3.25;;;5.00;99.90;;;;;;4876257;29;20250;-73
2023/12/14 13:33:09;;;;;;;4.72;4.00;;;5.00;99.90;;;;;;4878226;29;20578;-74
2023/12/14 13:35:37;;;;;;;3.38;2.92;;;5.00;99.90;;;;;;4877384;29;20204;-73
2023/12/14 13:38:03;;;;;;;2.60;2.40;;;5.10;99.90;;;;;;4878091;29;20222;-73
2023/12/14 13:40:30;;;;;;;3.67;3.38;;;5.10;99.90;;;;;;4872144;29;20212;-72
2023/12/14 13:42:59;;;;;;;3.78;2.33;;;5.00;99.90;;;;;;4877395;29;20207;-73
2023/12/14 13:45:27;;;;;;;2.13;2.03;;;5.00;99.90;;;;;;4879910;29;20215;-73
2023/12/14 13:47:54;;;;;;;2.95;1.85;;;4.90;99.90;;;;;;4879742;29;20646;-73
2023/12/14 13:50:21;;;;;;;2.25;2.15;;;4.90;99.90;;;;;;4878535;29;20218;-72
2023/12/14 13:52:49;;;;;;;2.65;2.45;;;4.90;99.90;;;;;;4875475;29;20236;-72
2023/12/14 13:55:16;;;;;;;4.07;2.22;;;4.90;99.90;;;;;;4877736;29;20215;-73
2023/12/14 13:57:42;;;;;;;1.30;1.30;;;4.90;99.90;;;;;;4875874;29;20723;-73
2023/12/14 14:00:11;;;;;;;1.58;1.48;;;4.80;99.90;;;;;;4876747;29;20219;-73
2023/12/14 14:02:38;;;;;;;2.00;1.90;;;4.80;99.90;;;;;;4876543;29;20206;-73
2023/12/14 14:05:05;;;;;;;3.00;1.50;;;4.80;99.90;;;;;;4878685;29;20214;-73
2023/12/14 14:07:32;;;;;;;4.68;2.67;;;4.80;99.90;;;;;;4887162;29;20234;-72
2023/12/14 14:10:00;;;;;;;1.95;1.85;;;4.80;99.90;;;;;;4882932;29;20209;-74
2023/12/14 14:12:27;;;;;;;3.03;2.92;;;4.80;99.90;;;;;;4877576;29;20230;-73
2023/12/14 14:14:53;;;;;;;2.08;1.92;;;4.80;99.90;;;;;;4876874;29;20217;-73
2023/12/14 14:17:20;;;;;;;1.98;1.90;;;4.80;99.90;;;;;;4877045;29;20221;-73
2023/12/14 14:19:47;;;;;;;2.65;1.92;;;4.80;99.90;;;;;;4874008;29;20217;-72
2023/12/14 14:22:13;;;;;;;2.17;2.08;;;4.80;99.90;;;;;;4878274;29;20226;-72
2023/12/14 14:24:40;;;;;;;2.55;2.42;;;4.80;99.90;;;;;;4877706;29;20739;-73
2023/12/14 14:27:08;;;;;;;2.78;2.67;;;4.80;99.90;;;;;;4876299;29;20206;-72
2023/12/14 14:29:35;;;;;;;2.60;2.40;;;4.80;99.90;;;;;;4876560;29;20220;-73
2023/12/14 14:32:01;;;;;;;3.53;3.33;;;4.80;99.90;;;;;;4875350;29;20237;-73
2023/12/14 14:34:28;;;;;;;3.38;3.08;;;4.80;99.90;;;;;;4870815;29;20214;-74
2023/12/14 14:36:55;;;;;;;7.80;2.78;;;4.80;99.90;;;;;;4879056;29;20229;-73
2023/12/14 14:39:21;;;;;;;8.93;5.90;;;4.80;99.90;;;;;;4878700;29;20209;-73
2023/12/14 14:41:48;;;;;;;14.18;7.68;;;4.80;99.90;;;;;;4876771;29;20227;-73
2023/12/14 14:44:17;;;;;;;8.93;4.82;;;4.80;99.90;;;;;;4877204;29;20942;-73
2023/12/14 14:46:44;;;;;;;4.75;3.78;;;4.90;99.90;;;;;;4877578;29;20301;-73
2023/12/14 14:49:11;;;;;;;7.82;5.90;;;4.80;99.90;;;;;;4878095;29;20217;-73
2023/12/14 14:51:38;;;;;;;7.47;5.40;;;4.80;99.90;;;;;;4877595;29;20234;-73
2023/12/14 14:54:04;;;;;;;6.40;5.25;;;4.80;99.90;;;;;;4877026;29;20225;-71
2023/12/14 14:56:31;;;;;;;5.93;5.10;;;4.90;99.90;;;;;;4878582;29;20210;-72
2023/12/14 14:58:58;;;;;;;11.80;6.53;;;4.90;99.90;;;;;;4877166;29;20221;-72
2023/12/14 15:01:26;;;;;;;14.13;12.63;;;4.80;99.90;;;;;;4875817;29;20730;-72
2023/12/14 15:03:53;;;;;;;12.57;9.45;;;4.90;99.90;;;;;;4880052;29;20321;-72
2023/12/14 15:06:22;;;;;;;9.05;6.65;;;4.80;99.90;;;;;;4876563;29;20557;-71
2023/12/14 15:08:49;;;;;;;6.65;5.95;;;4.80;99.90;;;;;;4879904;29;20214;-72
2023/12/14 15:11:16;;;;;;;6.10;5.53;;;4.80;99.90;;;;;;4877228;29;20254;-72
2023/12/14 15:13:42;;;;;;;7.45;5.13;;;4.80;99.90;;;;;;4876445;29;20215;-72
2023/12/14 15:16:10;;;;;;;8.70;7.55;;;4.80;99.90;;;;;;4877634;29;20570;-71
2023/12/14 15:18:41;;;;;;;5.78;5.07;;;4.80;99.90;;;;;;4876093;29;20289;-72
2023/12/14 15:21:08;;;;;;;6.20;5.68;;;4.80;99.90;;;;;;4877897;29;20246;-72
2023/12/14 15:23:35;;;;;;;6.32;5.82;;;4.80;99.90;;;;;;4874946;29;20217;-71
2023/12/14 15:26:01;;;;;;;5.30;4.53;;;4.80;99.90;;;;;;4873351;29;20754;-72
2023/12/14 15:28:28;;;;;;;4.88;4.50;;;4.80;99.90;;;;;;4870525;29;20214;-72
2023/12/14 15:30:55;;;;;;;3.65;3.45;;;4.80;99.90;;;;;;4877551;29;20329;-72
2023/12/14 15:33:21;;;;;;;5.15;4.38;;;4.80;99.90;;;;;;4875805;29;20241;-71
2023/12/14 15:35:49;;;;;;;8.38;7.32;;;4.80;99.90;;;;;;4878265;29;20226;-71
2023/12/14 15:38:16;;;;;;;8.95;7.25;;;4.70;99.90;;;;;;4877789;29;20219;-71
2023/12/14 15:40:43;;;;;;;11.15;7.10;;;4.70;99.90;;;;;;4874062;29;20246;-71
2023/12/14 15:43:10;;;;;;;9.95;8.45;;;4.70;99.90;;;;;;4874130;29;20207;-73
2023/12/14 15:45:37;;;;;;;7.70;6.80;;;4.70;99.90;;;;;;4878436;29;20219;-74
2023/12/14 15:48:04;;;;;;;13.30;7.32;;;4.70;99.90;;;;;;4877146;29;20289;-73
2023/12/14 15:50:31;;;;;;;7.30;6.00;;;4.70;99.90;;;;;;4877447;29;20641;-74
2023/12/14 15:52:59;;;;;;;5.53;4.13;;;4.70;99.90;;;;;;4877433;29;20228;-74
2023/12/14 15:55:26;;;;;;;4.88;4.38;;;4.70;99.90;;;;;;4874130;29;20226;-73
2023/12/14 15:57:53;;;;;;;4.22;3.83;;;4.60;99.90;;;;;;4871811;29;20263;-73
2023/12/14 16:00:20;;;;;;;3.55;2.70;;;4.60;99.90;;;;;;4868048;29;20219;-73
2023/12/14 16:02:47;;;;;;;3.17;2.70;;;4.60;99.90;;;;;;4872748;29;20215;-73
2023/12/14 16:05:14;;;;;;;4.00;3.28;;;4.60;99.90;;;;;;4876357;29;20215;-73
2023/12/14 16:07:41;;;;;;;6.30;4.75;;;4.60;99.90;;;;;;4876526;29;20229;-73
2023/12/14 16:10:09;;;;;;;5.53;3.78;;;4.50;99.90;;;;;;4869431;29;20701;-73
2023/12/14 16:12:36;;;;;;;5.03;3.90;;;4.60;99.90;;;;;;4876692;29;20622;-74
2023/12/14 16:15:04;;;;;;;4.43;2.72;;;4.60;99.90;;;;;;4875449;29;20359;-73
2023/12/14 16:17:30;;;;;;;4.00;2.95;;;4.60;99.90;;;;;;4876040;29;20214;-73
2023/12/14 16:19:57;;;;;;;3.67;2.38;;;4.60;99.90;;;;;;4877235;29;20733;-73
2023/12/14 16:22:24;;;;;;;6.13;4.40;;;4.60;99.90;;;;;;4874132;29;20238;-73
2023/12/14 16:24:50;;;;;;;6.80;6.10;;;4.60;99.90;;;;;;4870912;29;20219;-73
2023/12/14 16:27:18;;;;;;;8.77;6.35;;;4.60;99.90;;;;;;4874160;29;20207;-73
2023/12/14 16:29:47;;;;;;;11.88;7.63;;;4.60;99.90;;;;;;4867764;29;20935;-73
2023/12/14 16:32:14;;;;;;;13.43;9.80;;;4.60;99.90;;;;;;4876135;29;20243;-73
2023/12/14 16:34:40;;;;;;;11.05;7.90;;;4.50;99.90;;;;;;4874617;29;20222;-73
2023/12/14 16:37:07;;;;;;;7.65;6.88;;;4.50;99.90;;;;;;4873137;29;20211;-73
2023/12/14 16:39:35;;;;;;;5.40;3.78;;;4.50;99.90;;;;;;4875800;29;20210;-73
2023/12/14 16:42:02;;;;;;;6.38;4.10;;;4.50;99.90;;;;;;4874546;29;20237;-73
2023/12/14 16:44:30;;;;;;;6.75;4.97;;;4.50;99.90;;;;;;4876452;29;20300;-74
2023/12/14 16:46:56;;;;;;;5.10;4.50;;;4.50;99.90;;;;;;4879658;29;20301;-73
2023/12/14 16:49:23;;;;;;;7.32;4.75;;;4.50;99.90;;;;;;4879496;29;20211;-73
2023/12/14 16:51:50;;;;;;;5.80;5.05;;;4.50;99.90;;;;;;4879977;29;20257;-73
2023/12/14 16:54:16;;;;;;;6.45;5.05;;;4.50;99.90;;;;;;4879168;29;20724;-73
2023/12/14 16:56:43;;;;;;;7.45;5.40;;;4.50;99.90;;;;;;4877905;29;20637;-73
2023/12/14 16:59:10;;;;;;;7.32;4.90;;;4.40;99.90;;;;;;4879635;29;20218;-73
2023/12/14 17:01:39;;;;;;;9.02;4.65;;;4.40;99.90;;;;;;4879674;29;20729;-73
2023/12/14 17:04:05;;;;;;;7.07;6.38;;;4.40;99.90;;;;;;4879699;29;20270;-73
2023/12/14 17:06:32;;;;;;;9.50;6.35;;;4.40;99.90;;;;;;4877208;29;20256;-73
2023/12/14 17:08:59;;;;;;;4.68;4.28;;;4.40;99.90;;;;;;4877523;29;20211;-72
2023/12/14 17:11:25;;;;;;;6.35;5.18;;;4.30;99.90;;;;;;4878484;29;20234;-73
2023/12/14 17:13:52;;;;;;;6.65;5.72;;;4.30;99.90;;;;;;4879681;29;20332;-73
2023/12/14 17:16:20;;;;;;;7.43;5.25;;;4.30;99.90;;;;;;4879546;29;20213;-73
2023/12/14 17:18:48;;;;;;;5.90;5.30;;;4.20;99.90;;;;;;4879160;29;20282;-72
2023/12/14 17:21:19;;;;;;;7.13;4.90;;;4.20;99.90;;;;;;4877132;29;20231;-73
2023/12/14 17:23:46;;;;;;;6.40;4.93;;;4.10;99.90;;;;;;4878911;29;20222;-72
2023/12/14 17:26:13;;;;;;;6.90;5.20;;;4.10;99.90;;;;;;4877567;29;20220;-72
2023/12/14 17:28:41;;;;;;;7.78;5.68;;;4.10;99.90;;;;;;4877864;29;20240;-73
2023/12/14 17:31:09;;;;;;;7.47;5.82;;;4.00;99.90;;;;;;4879816;29;20237;-73
2023/12/14 17:33:36;;;;;;;8.60;5.15;;;4.00;99.90;;;;;;4879684;29;20338;-73
2023/12/14 17:36:05;;;;;;;10.40;7.57;;;4.00;99.90;;;;;;4877077;29;20225;-73
2023/12/14 17:38:31;;;;;;;8.63;6.00;;;3.90;99.90;;;;;;4876031;29;20213;-73
2023/12/14 17:41:01;;;;;;;9.85;5.85;;;3.90;99.90;;;;;;4881650;29;20672;-73
2023/12/14 17:43:28;;;;;;;8.00;6.03;;;3.90;99.90;;;;;;4877224;29;20206;-73
2023/12/14 17:45:55;;;;;;;7.38;6.30;;;3.90;99.90;;;;;;4878973;29;20244;-73
2023/12/14 17:48:21;;;;;;;8.70;5.95;;;3.80;99.90;;;;;;4877310;29;20228;-73
2023/12/14 17:50:49;;;;;;;9.30;7.00;;;3.80;99.90;;;;;;4872610;29;20728;-73
2023/12/14 17:53:17;;;;;;;9.77;6.72;;;3.80;99.90;;;;;;4875241;29;20332;-73
2023/12/14 17:55:44;;;;;;;15.60;7.30;;;3.70;99.90;;;;;;4872181;29;20598;-72